sensor_id;sensor_type;location;lat;lon;timestamp;pressure;altitude;pressure_sealevel;temperature;humidity
49397;BME280;35615;41.410;2.194;2023-04-15T00:02:31;101083.88;;;20.03;47.33
49397;BME280;35615;41.410;2.194;2023-04-15T00:05:06;101096.13;;;20.06;47.07
49397;BME280;35615;41.410;2.194;2023-04-15T00:07:39;101087.41;;;20.11;46.89
49397;BME280;35615;41.410;2.194;2023-04-15T00:10:24;101091.75;;;20.03;47.12
49397;BME280;35615;41.410;2.194;2023-04-15T00:12:55;101085.66;;;20.09;46.96
49397;BME280;35615;41.410;2.194;2023-04-15T00:15:43;101087.38;;;20.03;46.78
49397;BME280;35615;41.410;2.194;2023-04-15T00:18:26;101081.25;;;20.06;46.72
49397;BME280;35615;41.410;2.194;2023-04-15T00:20:56;101086.50;;;20.06;46.68
49397;BME280;35615;41.410;2.194;2023-04-15T00:23:24;101093.50;;;20.02;46.46
49397;BME280;35615;41.410;2.194;2023-04-15T00:25:54;101091.75;;;20.05;46.59
49397;BME280;35615;41.410;2.194;2023-04-15T00:28:27;101084.75;;;20.00;46.68
49397;BME280;35615;41.410;2.194;2023-04-15T00:30:59;101084.75;;;19.99;46.47
49397;BME280;35615;41.410;2.194;2023-04-15T00:33:26;101090.84;;;19.98;46.54
49397;BME280;35615;41.410;2.194;2023-04-15T00:35:58;101084.75;;;19.97;46.53
49397;BME280;35615;41.410;2.194;2023-04-15T00:38:39;101093.44;;;19.95;46.22
49397;BME280;35615;41.410;2.194;2023-04-15T00:41:23;101092.56;;;19.91;46.63
49397;BME280;35615;41.410;2.194;2023-04-15T00:43:56;101096.06;;;19.90;46.59
49397;BME280;35615;41.410;2.194;2023-04-15T00:46:37;101096.06;;;19.90;46.61
49397;BME280;35615;41.410;2.194;2023-04-15T00:49:08;101096.94;;;19.94;46.33
49397;BME280;35615;41.410;2.194;2023-04-15T00:51:46;101088.19;;;19.84;47.06
49397;BME280;35615;41.410;2.194;2023-04-15T00:54:25;101098.69;;;19.93;46.43
49397;BME280;35615;41.410;2.194;2023-04-15T00:56:55;101102.16;;;19.88;46.73
49397;BME280;35615;41.410;2.194;2023-04-15T00:59:35;101097.78;;;19.85;47.03
49397;BME280;35615;41.410;2.194;2023-04-15T01:02:15;101096.00;;;19.81;47.02
49397;BME280;35615;41.410;2.194;2023-04-15T01:04:52;101096.84;;;19.74;47.37
49397;BME280;35615;41.410;2.194;2023-04-15T01:07:20;101102.97;;;19.78;47.21
49397;BME280;35615;41.410;2.194;2023-04-15T01:09:56;101095.06;;;19.71;47.36
49397;BME280;35615;41.410;2.194;2023-04-15T01:12:25;101092.44;;;19.70;47.29
49397;BME280;35615;41.410;2.194;2023-04-15T01:14:54;101086.19;;;19.53;47.96
49397;BME280;35615;41.410;2.194;2023-04-15T01:17:26;101085.41;;;19.63;47.92
49397;BME280;35615;41.410;2.194;2023-04-15T01:19:57;101089.81;;;19.67;47.63
49397;BME280;35615;41.410;2.194;2023-04-15T01:22:29;101099.41;;;19.63;48.08
49397;BME280;35615;41.410;2.194;2023-04-15T01:25:06;101094.16;;;19.66;48.40
49397;BME280;35615;41.410;2.194;2023-04-15T01:27:38;101088.94;;;19.66;48.37
49397;BME280;35615;41.410;2.194;2023-04-15T01:30:10;101081.06;;;19.65;48.08
49397;BME280;35615;41.410;2.194;2023-04-15T01:32:37;101083.63;;;19.62;48.36
49397;BME280;35615;41.410;2.194;2023-04-15T01:35:07;101088.06;;;19.66;48.16
49397;BME280;35615;41.410;2.194;2023-04-15T01:37:38;101077.53;;;19.61;48.07
49397;BME280;35615;41.410;2.194;2023-04-15T01:40:06;101081.88;;;19.56;47.57
49397;BME280;35615;41.410;2.194;2023-04-15T01:42:35;101080.06;;;19.52;47.81
49397;BME280;35615;41.410;2.194;2023-04-15T01:45:04;101077.47;;;19.54;47.65
49397;BME280;35615;41.410;2.194;2023-04-15T01:47:32;101083.53;;;19.50;47.48
49397;BME280;35615;41.410;2.194;2023-04-15T01:50:03;101082.66;;;19.51;47.31
49397;BME280;35615;41.410;2.194;2023-04-15T01:52:40;101073.84;;;19.39;47.61
49397;BME280;35615;41.410;2.194;2023-04-15T01:55:13;101078.25;;;19.40;47.76
49397;BME280;35615;41.410;2.194;2023-04-15T01:57:41;101077.38;;;19.40;47.38
49397;BME280;35615;41.410;2.194;2023-04-15T02:00:17;101073.00;;;19.42;47.34
49397;BME280;35615;41.410;2.194;2023-04-15T02:02:45;101075.66;;;19.45;46.92
49397;BME280;35615;41.410;2.194;2023-04-15T02:05:12;101074.75;;;19.43;47.05
49397;BME280;35615;41.410;2.194;2023-04-15T02:07:45;101076.44;;;19.36;47.45
49397;BME280;35615;41.410;2.194;2023-04-15T02:10:13;101089.53;;;19.33;47.57
49397;BME280;35615;41.410;2.194;2023-04-15T02:12:42;101089.53;;;19.32;47.57
49397;BME280;35615;41.410;2.194;2023-04-15T02:15:10;101099.16;;;19.37;47.29
49397;BME280;35615;41.410;2.194;2023-04-15T02:17:38;101100.03;;;19.36;47.32
49397;BME280;35615;41.410;2.194;2023-04-15T02:20:07;101101.75;;;19.30;47.37
49397;BME280;35615;41.410;2.194;2023-04-15T02:22:35;101095.59;;;19.28;47.21
49397;BME280;35615;41.410;2.194;2023-04-15T02:25:03;101088.56;;;19.22;47.25
49397;BME280;35615;41.410;2.194;2023-04-15T02:27:31;101092.94;;;19.22;47.36
49397;BME280;35615;41.410;2.194;2023-04-15T02:29:58;101092.94;;;19.25;47.38
49397;BME280;35615;41.410;2.194;2023-04-15T02:32:26;101092.94;;;19.23;47.17
49397;BME280;35615;41.410;2.194;2023-04-15T02:34:55;101087.69;;;19.20;47.14
49397;BME280;35615;41.410;2.194;2023-04-15T02:37:23;101089.44;;;19.20;47.23
49397;BME280;35615;41.410;2.194;2023-04-15T02:39:54;101085.88;;;19.14;47.25
49397;BME280;35615;41.410;2.194;2023-04-15T02:42:23;101094.63;;;19.16;47.09
49397;BME280;35615;41.410;2.194;2023-04-15T02:44:53;101091.09;;;19.10;47.21
49397;BME280;35615;41.410;2.194;2023-04-15T02:47:26;101090.16;;;19.05;47.41
49397;BME280;35615;41.410;2.194;2023-04-15T02:49:55;101091.06;;;19.07;47.25
49397;BME280;35615;41.410;2.194;2023-04-15T02:52:24;101088.38;;;19.01;47.20
49397;BME280;35615;41.410;2.194;2023-04-15T02:54:52;101085.78;;;19.02;47.12
49397;BME280;35615;41.410;2.194;2023-04-15T02:57:23;101079.66;;;18.99;47.03
49397;BME280;35615;41.410;2.194;2023-04-15T03:02:51;101091.81;;;18.95;47.00
49397;BME280;35615;41.410;2.194;2023-04-15T03:05:22;101090.09;;;18.97;46.95
49397;BME280;35615;41.410;2.194;2023-04-15T03:07:51;101095.34;;;18.96;46.81
49397;BME280;35615;41.410;2.194;2023-04-15T03:10:19;101090.03;;;18.91;46.81
49397;BME280;35615;41.410;2.194;2023-04-15T03:12:47;101090.88;;;18.85;46.77
49397;BME280;35615;41.410;2.194;2023-04-15T03:15:20;101090.00;;;18.86;46.82
49397;BME280;35615;41.410;2.194;2023-04-15T03:17:50;101103.91;;;18.82;46.86
49397;BME280;35615;41.410;2.194;2023-04-15T03:20:17;101098.69;;;18.84;46.70
49397;BME280;35615;41.410;2.194;2023-04-15T03:22:47;101101.34;;;18.87;46.74
49397;BME280;35615;41.410;2.194;2023-04-15T03:25:14;101096.03;;;18.81;46.74
49397;BME280;35615;41.410;2.194;2023-04-15T03:27:42;101090.81;;;18.82;46.78
49397;BME280;35615;41.410;2.194;2023-04-15T03:30:10;101087.28;;;18.77;46.69
49397;BME280;35615;41.410;2.194;2023-04-15T03:32:39;101094.25;;;18.75;46.82
49397;BME280;35615;41.410;2.194;2023-04-15T03:35:10;101095.97;;;18.73;46.76
49397;BME280;35615;41.410;2.194;2023-04-15T03:37:40;101095.94;;;18.70;46.79
49397;BME280;35615;41.410;2.194;2023-04-15T03:40:08;101098.50;;;18.66;46.88
49397;BME280;35615;41.410;2.194;2023-04-15T03:42:41;101105.38;;;18.59;47.14
49397;BME280;35615;41.410;2.194;2023-04-15T03:45:11;101107.13;;;18.62;46.78
49397;BME280;35615;41.410;2.194;2023-04-15T03:47:41;101107.94;;;18.54;47.13
49397;BME280;35615;41.410;2.194;2023-04-15T03:50:11;101116.69;;;18.56;46.86
49397;BME280;35615;41.410;2.194;2023-04-15T03:52:43;101114.84;;;18.49;47.29
49397;BME280;35615;41.410;2.194;2023-04-15T03:55:11;101114.84;;;18.49;46.97
49397;BME280;35615;41.410;2.194;2023-04-15T03:57:39;101113.97;;;18.49;46.99
49397;BME280;35615;41.410;2.194;2023-04-15T04:00:12;101119.19;;;18.46;47.06
49397;BME280;35615;41.410;2.194;2023-04-15T04:02:42;101117.34;;;18.39;47.05
49397;BME280;35615;41.410;2.194;2023-04-15T04:05:18;101125.25;;;18.42;46.78
49397;BME280;35615;41.410;2.194;2023-04-15T04:07:45;101113.84;;;18.37;46.77
49397;BME280;35615;41.410;2.194;2023-04-15T04:10:13;101118.91;;;18.23;46.87
49397;BME280;35615;41.410;2.194;2023-04-15T04:12:40;101115.41;;;18.22;46.75
49397;BME280;35615;41.410;2.194;2023-04-15T04:15:08;101116.19;;;18.17;46.90
49397;BME280;35615;41.410;2.194;2023-04-15T04:17:35;101116.19;;;18.17;46.72
49397;BME280;35615;41.410;2.194;2023-04-15T04:20:03;101113.66;;;18.20;46.63
49397;BME280;35615;41.410;2.194;2023-04-15T04:22:38;101118.72;;;18.09;46.73
49397;BME280;35615;41.410;2.194;2023-04-15T04:25:07;101110.00;;;18.09;46.52
49397;BME280;35615;41.410;2.194;2023-04-15T04:27:35;101117.78;;;18.06;45.97
49397;BME280;35615;41.410;2.194;2023-04-15T04:30:05;101117.72;;;17.98;45.46
49397;BME280;35615;41.410;2.194;2023-04-15T04:32:51;101119.44;;;17.97;45.91
49397;BME280;35615;41.410;2.194;2023-04-15T04:35:19;101117.75;;;18.01;45.43
49397;BME280;35615;41.410;2.194;2023-04-15T04:37:53;101118.72;;;18.09;45.38
49397;BME280;35615;41.410;2.194;2023-04-15T04:40:23;101132.63;;;18.07;44.76
49397;BME280;35615;41.410;2.194;2023-04-15T04:42:53;101128.25;;;18.06;44.94
49397;BME280;35615;41.410;2.194;2023-04-15T04:45:21;101127.50;;;18.14;44.53
49397;BME280;35615;41.410;2.194;2023-04-15T04:47:51;101124.00;;;18.14;44.43
49397;BME280;35615;41.410;2.194;2023-04-15T04:50:21;101128.38;;;18.15;44.23
49397;BME280;35615;41.410;2.194;2023-04-15T04:52:54;101121.44;;;18.17;43.96
49397;BME280;35615;41.410;2.194;2023-04-15T04:55:21;101129.25;;;18.14;43.74
49397;BME280;35615;41.410;2.194;2023-04-15T04:57:51;101121.38;;;18.11;43.61
49397;BME280;35615;41.410;2.194;2023-04-15T05:00:24;101130.09;;;18.11;43.39
49397;BME280;35615;41.410;2.194;2023-04-15T05:02:54;101137.91;;;18.08;42.93
49397;BME280;35615;41.410;2.194;2023-04-15T05:05:25;101124.69;;;17.99;42.91
49397;BME280;35615;41.410;2.194;2023-04-15T05:07:55;101132.00;;;17.65;42.69
49397;BME280;35615;41.410;2.194;2023-04-15T05:10:22;101146.91;;;17.69;43.51
49397;BME280;35615;41.410;2.194;2023-04-15T05:12:49;101144.53;;;17.85;43.15
49397;BME280;35615;41.410;2.194;2023-04-15T05:15:20;101152.22;;;17.74;42.91
49397;BME280;35615;41.410;2.194;2023-04-15T05:17:47;101150.69;;;17.90;42.44
49397;BME280;35615;41.410;2.194;2023-04-15T05:20:16;101144.66;;;17.94;42.15
49397;BME280;35615;41.410;2.194;2023-04-15T05:22:46;101142.13;;;17.98;42.43
49397;BME280;35615;41.410;2.194;2023-04-15T05:25:21;101150.69;;;17.88;42.58
49397;BME280;35615;41.410;2.194;2023-04-15T05:27:48;101155.94;;;17.91;42.22
49397;BME280;35615;41.410;2.194;2023-04-15T05:30:16;101163.47;;;17.70;41.34
49397;BME280;35615;41.410;2.194;2023-04-15T05:32:43;101167.91;;;17.74;41.20
49397;BME280;35615;41.410;2.194;2023-04-15T05:35:17;101159.38;;;17.86;40.59
49397;BME280;35615;41.410;2.194;2023-04-15T05:37:53;101156.81;;;17.90;40.57
49397;BME280;35615;41.410;2.194;2023-04-15T05:40:25;101161.38;;;18.07;40.49
49397;BME280;35615;41.410;2.194;2023-04-15T05:43:02;101165.78;;;18.08;40.34
49397;BME280;35615;41.410;2.194;2023-04-15T05:45:39;101165.56;;;17.94;39.94
49397;BME280;35615;41.410;2.194;2023-04-15T05:48:18;101163.72;;;17.85;39.78
49397;BME280;35615;41.410;2.194;2023-04-15T05:51:00;101161.16;;;17.91;39.42
49397;BME280;35615;41.410;2.194;2023-04-15T05:53:31;101169.16;;;18.02;39.86
49397;BME280;35615;41.410;2.194;2023-04-15T05:55:58;101172.69;;;18.06;40.20
49397;BME280;35615;41.410;2.194;2023-04-15T05:58:26;101169.97;;;17.96;39.79
49397;BME280;35615;41.410;2.194;2023-04-15T06:00:59;101158.75;;;18.05;40.24
49397;BME280;35615;41.410;2.194;2023-04-15T06:03:37;101163.75;;;17.88;40.03
49397;BME280;35615;41.410;2.194;2023-04-15T06:06:05;101168.19;;;17.95;40.01
49397;BME280;35615;41.410;2.194;2023-04-15T06:08:35;101166.53;;;18.00;40.08
49397;BME280;35615;41.410;2.194;2023-04-15T06:11:05;101163.97;;;18.04;39.87
49397;BME280;35615;41.410;2.194;2023-04-15T06:13:36;101181.47;;;18.08;40.12
49397;BME280;35615;41.410;2.194;2023-04-15T06:16:09;101180.72;;;18.18;40.32
49397;BME280;35615;41.410;2.194;2023-04-15T06:18:43;101192.81;;;18.08;40.92
49397;BME280;35615;41.410;2.194;2023-04-15T06:21:10;101195.31;;;18.02;41.54
49397;BME280;35615;41.410;2.194;2023-04-15T06:23:37;101206.50;;;17.93;42.08
49397;BME280;35615;41.410;2.194;2023-04-15T06:26:09;101209.09;;;17.90;42.21
49397;BME280;35615;41.410;2.194;2023-04-15T06:28:42;101208.97;;;17.84;42.48
49397;BME280;35615;41.410;2.194;2023-04-15T06:31:12;101210.94;;;17.97;42.40
49397;BME280;35615;41.410;2.194;2023-04-15T06:33:41;101205.59;;;17.90;43.38
49397;BME280;35615;41.410;2.194;2023-04-15T06:36:11;101204.00;;;18.01;43.95
49397;BME280;35615;41.410;2.194;2023-04-15T06:38:50;101198.66;;;17.92;43.66
49397;BME280;35615;41.410;2.194;2023-04-15T06:41:20;101209.94;;;17.89;43.53
49397;BME280;35615;41.410;2.194;2023-04-15T06:43:50;101204.75;;;17.94;43.59
49397;BME280;35615;41.410;2.194;2023-04-15T06:46:21;101203.84;;;17.90;43.54
49397;BME280;35615;41.410;2.194;2023-04-15T06:48:52;101203.88;;;17.93;43.46
49397;BME280;35615;41.410;2.194;2023-04-15T06:51:21;101204.75;;;17.94;43.01
49397;BME280;35615;41.410;2.194;2023-04-15T06:53:58;101198.41;;;17.75;43.64
49397;BME280;35615;41.410;2.194;2023-04-15T06:56:27;101206.34;;;17.83;42.92
49397;BME280;35615;41.410;2.194;2023-04-15T06:58:56;101222.09;;;17.87;43.12
49397;BME280;35615;41.410;2.194;2023-04-15T07:01:29;101235.06;;;17.81;43.31
49397;BME280;35615;41.410;2.194;2023-04-15T07:03:57;101222.03;;;17.84;43.04
49397;BME280;35615;41.410;2.194;2023-04-15T07:06:25;101215.06;;;17.83;42.54
49397;BME280;35615;41.410;2.194;2023-04-15T07:08:58;101232.59;;;17.90;42.41
49397;BME280;35615;41.410;2.194;2023-04-15T07:11:32;101227.31;;;17.86;42.74
49397;BME280;35615;41.410;2.194;2023-04-15T07:14:02;101231.03;;;18.00;42.69
49397;BME280;35615;41.410;2.194;2023-04-15T07:16:35;101229.34;;;18.05;42.94
49397;BME280;35615;41.410;2.194;2023-04-15T07:19:06;101230.94;;;17.95;43.08
49397;BME280;35615;41.410;2.194;2023-04-15T07:21:33;101233.81;;;18.12;42.60
49397;BME280;35615;41.410;2.194;2023-04-15T07:24:04;101228.59;;;18.14;42.62
49397;BME280;35615;41.410;2.194;2023-04-15T07:26:39;101228.53;;;18.08;42.98
49397;BME280;35615;41.410;2.194;2023-04-15T07:29:09;101228.56;;;18.11;42.28
49397;BME280;35615;41.410;2.194;2023-04-15T07:31:39;101239.97;;;18.16;41.98
49397;BME280;35615;41.410;2.194;2023-04-15T07:34:10;101234.56;;;18.05;42.18
49397;BME280;35615;41.410;2.194;2023-04-15T07:36:39;101230.28;;;18.09;41.68
49397;BME280;35615;41.410;2.194;2023-04-15T07:39:09;101231.56;;;18.38;41.65
49397;BME280;35615;41.410;2.194;2023-04-15T07:41:42;101236.03;;;18.44;41.53
49397;BME280;35615;41.410;2.194;2023-04-15T07:44:20;101238.78;;;18.54;40.58
49397;BME280;35615;41.410;2.194;2023-04-15T07:46:55;101244.78;;;18.49;39.34
49397;BME280;35615;41.410;2.194;2023-04-15T07:49:30;101246.19;;;18.86;39.73
49397;BME280;35615;41.410;2.194;2023-04-15T07:52:02;101244.47;;;18.88;39.63
49397;BME280;35615;41.410;2.194;2023-04-15T07:54:31;101248.75;;;18.83;40.39
49397;BME280;35615;41.410;2.194;2023-04-15T07:56:59;101234.03;;;18.90;40.84
49397;BME280;35615;41.410;2.194;2023-04-15T07:59:28;101236.97;;;19.19;40.47
49397;BME280;35615;41.410;2.194;2023-04-15T08:01:57;101239.75;;;19.37;40.46
49397;BME280;35615;41.410;2.194;2023-04-15T08:04:32;101242.44;;;19.40;39.23
49397;BME280;35615;41.410;2.194;2023-04-15T08:07:03;101240.97;;;19.66;38.79
49397;BME280;35615;41.410;2.194;2023-04-15T08:09:31;101251.53;;;19.77;38.21
49397;BME280;35615;41.410;2.194;2023-04-15T08:11:59;101248.84;;;19.72;36.64
49397;BME280;35615;41.410;2.194;2023-04-15T08:14:30;101235.91;;;19.89;35.70
49397;BME280;35615;41.410;2.194;2023-04-15T08:17:03;101232.41;;;19.92;36.58
49397;BME280;35615;41.410;2.194;2023-04-15T08:19:31;101238.53;;;19.94;34.73
49397;BME280;35615;41.410;2.194;2023-04-15T08:22:05;101236.19;;;20.32;35.28
49397;BME280;35615;41.410;2.194;2023-04-15T08:24:43;101231.16;;;20.66;34.46
49397;BME280;35615;41.410;2.194;2023-04-15T08:27:12;101232.97;;;20.80;33.62
49397;BME280;35615;41.410;2.194;2023-04-15T08:29:49;101231.41;;;21.34;33.08
49397;BME280;35615;41.410;2.194;2023-04-15T08:32:17;101228.75;;;21.34;32.96
49397;BME280;35615;41.410;2.194;2023-04-15T08:34:50;101229.69;;;21.78;32.97
49397;BME280;35615;41.410;2.194;2023-04-15T08:37:17;101221.75;;;22.05;32.56
49397;BME280;35615;41.410;2.194;2023-04-15T08:39:45;101226.13;;;22.40;32.06
49397;BME280;35615;41.410;2.194;2023-04-15T08:42:16;101222.50;;;22.68;31.42
49397;BME280;35615;41.410;2.194;2023-04-15T08:44:45;101230.41;;;22.65;29.95
49397;BME280;35615;41.410;2.194;2023-04-15T08:47:16;101207.66;;;22.50;30.20
49397;BME280;35615;41.410;2.194;2023-04-15T08:49:47;101217.13;;;22.99;30.62
49397;BME280;35615;41.410;2.194;2023-04-15T08:52:20;101217.78;;;23.33;29.31
49397;BME280;35615;41.410;2.194;2023-04-15T08:54:59;101230.97;;;23.33;28.81
49397;BME280;35615;41.410;2.194;2023-04-15T08:57:32;101231.88;;;23.29;29.09
49397;BME280;35615;41.410;2.194;2023-04-15T09:00:17;101230.13;;;23.29;29.03
49397;BME280;35615;41.410;2.194;2023-04-15T09:02:51;101228.16;;;23.59;29.12
49397;BME280;35615;41.410;2.194;2023-04-15T09:05:24;101231.56;;;23.74;28.86
49397;BME280;35615;41.410;2.194;2023-04-15T09:07:53;101228.53;;;24.17;29.11
49397;BME280;35615;41.410;2.194;2023-04-15T09:10:20;101226.84;;;24.10;29.02
49397;BME280;35615;41.410;2.194;2023-04-15T09:12:48;101222.06;;;24.46;27.82
49397;BME280;35615;41.410;2.194;2023-04-15T09:15:16;101213.88;;;24.69;28.37
49397;BME280;35615;41.410;2.194;2023-04-15T09:17:46;101201.28;;;24.89;27.75
49397;BME280;35615;41.410;2.194;2023-04-15T09:20:20;101206.34;;;25.07;27.48
49397;BME280;35615;41.410;2.194;2023-04-15T09:22:50;101190.13;;;25.30;27.89
49397;BME280;35615;41.410;2.194;2023-04-15T09:25:26;101199.19;;;25.71;26.70
49397;BME280;35615;41.410;2.194;2023-04-15T09:28:01;101187.06;;;25.56;27.18
49397;BME280;35615;41.410;2.194;2023-04-15T09:30:29;101193.34;;;25.51;26.64
49397;BME280;35615;41.410;2.194;2023-04-15T09:33:04;101189.66;;;25.59;26.86
49397;BME280;35615;41.410;2.194;2023-04-15T09:35:35;101176.19;;;25.74;27.03
49397;BME280;35615;41.410;2.194;2023-04-15T09:38:07;101174.19;;;25.35;26.69
49397;BME280;35615;41.410;2.194;2023-04-15T09:40:40;101169.63;;;24.86;27.70
49397;BME280;35615;41.410;2.194;2023-04-15T09:43:16;101171.22;;;25.55;26.90
49397;BME280;35615;41.410;2.194;2023-04-15T09:45:51;101172.78;;;25.66;26.68
49397;BME280;35615;41.410;2.194;2023-04-15T09:48:27;101181.13;;;25.96;26.49
49397;BME280;35615;41.410;2.194;2023-04-15T09:51:00;101175.34;;;25.74;26.49
49397;BME280;35615;41.410;2.194;2023-04-15T09:53:43;101186.44;;;25.93;26.28
49397;BME280;35615;41.410;2.194;2023-04-15T09:56:11;101185.16;;;26.14;25.76
49397;BME280;35615;41.410;2.194;2023-04-15T09:58:54;101187.25;;;25.45;26.27
49397;BME280;35615;41.410;2.194;2023-04-15T10:01:44;101182.34;;;26.23;25.84
49397;BME280;35615;41.410;2.194;2023-04-15T10:04:37;101169.19;;;26.63;25.45
49397;BME280;35615;41.410;2.194;2023-04-15T10:07:10;101171.69;;;26.69;25.33
49397;BME280;35615;41.410;2.194;2023-04-15T10:09:48;101165.91;;;26.90;25.75
49397;BME280;35615;41.410;2.194;2023-04-15T10:12:28;101168.13;;;26.70;24.91
49397;BME280;35615;41.410;2.194;2023-04-15T10:15:36;101159.59;;;26.98;24.91
49397;BME280;35615;41.410;2.194;2023-04-15T10:18:24;101158.91;;;27.28;24.81
49397;BME280;35615;41.410;2.194;2023-04-15T10:21:02;101148.66;;;26.31;26.69
49397;BME280;35615;41.410;2.194;2023-04-15T10:23:37;101156.88;;;26.16;27.70
49397;BME280;35615;41.410;2.194;2023-04-15T10:26:40;101151.38;;;26.28;27.93
49397;BME280;35615;41.410;2.194;2023-04-15T10:29:32;101167.09;;;25.37;29.06
49397;BME280;35615;41.410;2.194;2023-04-15T10:32:03;101178.63;;;24.70;30.16
49397;BME280;35615;41.410;2.194;2023-04-15T10:34:42;101181.00;;;24.16;32.33
49397;BME280;35615;41.410;2.194;2023-04-15T10:37:18;101197.72;;;23.09;34.83
49397;BME280;35615;41.410;2.194;2023-04-15T10:45:59;101200.63;;;23.90;32.74
49397;BME280;35615;41.410;2.194;2023-04-15T10:48:58;101196.31;;;23.82;32.43
49397;BME280;35615;41.410;2.194;2023-04-15T10:52:00;101192.16;;;23.48;31.97
49397;BME280;35615;41.410;2.194;2023-04-15T10:54:31;101192.09;;;23.62;31.54
49397;BME280;35615;41.410;2.194;2023-04-15T11:03:07;101184.59;;;24.12;30.93
49397;BME280;35615;41.410;2.194;2023-04-15T11:08:09;101191.13;;;23.74;30.60
49397;BME280;35615;41.410;2.194;2023-04-15T11:13:18;101175.03;;;24.75;29.84
49397;BME280;35615;41.410;2.194;2023-04-15T11:16:02;101176.25;;;24.48;29.52
49397;BME280;35615;41.410;2.194;2023-04-15T11:18:41;101171.03;;;24.44;29.16
49397;BME280;35615;41.410;2.194;2023-04-15T11:21:53;101171.78;;;24.55;28.52
49397;BME280;35615;41.410;2.194;2023-04-15T11:24:45;101161.59;;;24.90;28.50
49397;BME280;35615;41.410;2.194;2023-04-15T11:27:34;101161.94;;;25.29;27.83
49397;BME280;35615;41.410;2.194;2023-04-15T11:30:36;101174.28;;;25.27;28.13
49397;BME280;35615;41.410;2.194;2023-04-15T11:33:13;101159.28;;;25.31;27.85
49397;BME280;35615;41.410;2.194;2023-04-15T11:35:50;101155.47;;;24.88;27.86
49397;BME280;35615;41.410;2.194;2023-04-15T11:38:33;101155.09;;;25.14;28.11
49397;BME280;35615;41.410;2.194;2023-04-15T11:41:30;101143.47;;;25.28;27.55
49397;BME280;35615;41.410;2.194;2023-04-15T11:44:15;101136.59;;;25.14;28.37
49397;BME280;35615;41.410;2.194;2023-04-15T11:47:23;101144.66;;;25.61;27.66
49397;BME280;35615;41.410;2.194;2023-04-15T11:50:16;101140.53;;;25.94;27.27
49397;BME280;35615;41.410;2.194;2023-04-15T11:53:07;101133.28;;;26.05;28.14
49397;BME280;35615;41.410;2.194;2023-04-15T11:55:52;101130.97;;;25.87;28.45
49397;BME280;35615;41.410;2.194;2023-04-15T11:58:27;101118.97;;;26.14;28.67
49397;BME280;35615;41.410;2.194;2023-04-15T12:01:19;101126.78;;;26.63;29.48
49397;BME280;35615;41.410;2.194;2023-04-15T12:06:42;101114.19;;;26.74;28.59
49397;BME280;35615;41.410;2.194;2023-04-15T12:09:23;101110.75;;;26.69;27.62
49397;BME280;35615;41.410;2.194;2023-04-15T12:12:07;101122.25;;;27.08;27.61
49397;BME280;35615;41.410;2.194;2023-04-15T12:14:44;101119.41;;;27.14;26.66
49397;BME280;35615;41.410;2.194;2023-04-15T12:17:23;101118.47;;;27.53;26.68
49397;BME280;35615;41.410;2.194;2023-04-15T12:20:43;101119.75;;;27.36;26.38
49397;BME280;35615;41.410;2.194;2023-04-15T12:23:30;101131.50;;;27.26;26.26
49397;BME280;35615;41.410;2.194;2023-04-15T12:26:06;101128.16;;;27.54;25.83
49397;BME280;35615;41.410;2.194;2023-04-15T12:28:44;101129.19;;;27.84;25.09
49397;BME280;35615;41.410;2.194;2023-04-15T12:34:11;101132.19;;;27.34;25.27
49397;BME280;35615;41.410;2.194;2023-04-15T12:36:49;101121.72;;;27.64;25.23
49397;BME280;35615;41.410;2.194;2023-04-15T12:39:30;101120.25;;;27.52;25.82
49397;BME280;35615;41.410;2.194;2023-04-15T12:42:23;101120.75;;;27.68;25.90
49397;BME280;35615;41.410;2.194;2023-04-15T12:45:10;101115.53;;;27.65;26.01
49397;BME280;35615;41.410;2.194;2023-04-15T12:47:46;101125.59;;;27.85;25.66
49397;BME280;35615;41.410;2.194;2023-04-15T12:50:40;101128.00;;;27.60;26.08
49397;BME280;35615;41.410;2.194;2023-04-15T12:53:14;101137.81;;;27.56;26.36
49397;BME280;35615;41.410;2.194;2023-04-15T12:55:49;101133.19;;;27.66;26.00
49397;BME280;35615;41.410;2.194;2023-04-15T12:58:23;101133.94;;;27.35;25.61
49397;BME280;35615;41.410;2.194;2023-04-15T13:01:06;101126.25;;;27.93;25.23
49397;BME280;35615;41.410;2.194;2023-04-15T13:03:41;101138.69;;;27.91;25.45
49397;BME280;35615;41.410;2.194;2023-04-15T13:06:19;101140.88;;;27.76;24.66
49397;BME280;35615;41.410;2.194;2023-04-15T13:08:50;101124.88;;;28.11;24.37
49397;BME280;35615;41.410;2.194;2023-04-15T13:11:33;101127.44;;;27.81;24.24
49397;BME280;35615;41.410;2.194;2023-04-15T13:14:16;101123.78;;;27.53;24.17
49397;BME280;35615;41.410;2.194;2023-04-15T13:16:44;101119.34;;;28.18;24.73
49397;BME280;35615;41.410;2.194;2023-04-15T13:19:12;101114.91;;;28.19;24.33
49397;BME280;35615;41.410;2.194;2023-04-15T13:21:53;101113.13;;;28.19;24.32
49397;BME280;35615;41.410;2.194;2023-04-15T13:24:31;101113.47;;;28.07;23.90
49397;BME280;35615;41.410;2.194;2023-04-15T13:27:06;101108.78;;;28.17;24.21
49397;BME280;35615;41.410;2.194;2023-04-15T13:29:35;101114.81;;;28.22;24.28
49397;BME280;35615;41.410;2.194;2023-04-15T13:32:15;101109.59;;;28.50;24.04
49397;BME280;35615;41.410;2.194;2023-04-15T13:34:46;101101.22;;;28.01;25.59
49397;BME280;35615;41.410;2.194;2023-04-15T13:37:26;101094.41;;;28.22;26.12
49397;BME280;35615;41.410;2.194;2023-04-15T13:39:57;101103.41;;;28.18;26.36
49397;BME280;35615;41.410;2.194;2023-04-15T13:42:30;101107.72;;;27.57;27.43
49397;BME280;35615;41.410;2.194;2023-04-15T13:45:00;101113.53;;;27.73;28.22
49397;BME280;35615;41.410;2.194;2023-04-15T13:47:32;101128.69;;;27.68;28.11
49397;BME280;35615;41.410;2.194;2023-04-15T13:50:00;101128.91;;;27.25;28.42
49397;BME280;35615;41.410;2.194;2023-04-15T13:52:39;101114.47;;;26.99;29.46